sensor_id;sensor_type;location;lat;lon;timestamp;P1;durP1;ratioP1;P2;durP2;ratioP2
58446;SDS011;44240;51.840;7.258;2023-02-01T00:01:18;22.60;;;7.25;;
58446;SDS011;44240;51.840;7.258;2023-02-01T00:03:43;20.65;;;7.53;;
58446;SDS011;44240;51.840;7.258;2023-02-01T00:06:09;18.75;;;7.38;;
58446;SDS011;44240;51.840;7.258;2023-02-01T00:08:34;25.80;;;8.88;;
58446;SDS011;44240;51.840;7.258;2023-02-01T00:11:05;16.42;;;6.70;;
58446;SDS011;44240;51.840;7.258;2023-02-01T00:13:32;19.77;;;6.82;;
58446;SDS011;44240;51.840;7.258;2023-02-01T00:16:06;21.33;;;7.43;;
58446;SDS011;44240;51.840;7.258;2023-02-01T00:18:34;16.35;;;7.05;;
58446;SDS011;44240;51.840;7.258;2023-02-01T00:21:00;21.90;;;7.85;;
58446;SDS011;44240;51.840;7.258;2023-02-01T00:23:26;21.23;;;6.50;;
58446;SDS011;44240;51.840;7.258;2023-02-01T00:25:52;18.45;;;7.72;;
58446;SDS011;44240;51.840;7.258;2023-02-01T00:28:17;23.02;;;6.75;;
58446;SDS011;44240;51.840;7.258;2023-02-01T00:30:43;23.67;;;6.63;;
58446;SDS011;44240;51.840;7.258;2023-02-01T00:33:08;26.17;;;8.15;;
58446;SDS011;44240;51.840;7.258;2023-02-01T00:35:34;17.58;;;6.50;;
58446;SDS011;44240;51.840;7.258;2023-02-01T00:38:00;26.88;;;5.85;;
58446;SDS011;44240;51.840;7.258;2023-02-01T00:40:26;22.65;;;5.28;;
58446;SDS011;44240;51.840;7.258;2023-02-01T00:42:51;23.80;;;5.85;;
58446;SDS011;44240;51.840;7.258;2023-02-01T00:45:17;21.73;;;7.22;;
58446;SDS011;44240;51.840;7.258;2023-02-01T00:47:43;17.00;;;5.65;;
58446;SDS011;44240;51.840;7.258;2023-02-01T00:50:09;18.50;;;6.57;;
58446;SDS011;44240;51.840;7.258;2023-02-01T00:52:35;12.65;;;5.47;;
58446;SDS011;44240;51.840;7.258;2023-02-01T00:55:00;20.25;;;5.90;;
58446;SDS011;44240;51.840;7.258;2023-02-01T00:57:26;21.35;;;6.38;;
58446;SDS011;44240;51.840;7.258;2023-02-01T00:59:51;17.40;;;5.07;;
58446;SDS011;44240;51.840;7.258;2023-02-01T01:02:17;25.05;;;6.25;;
58446;SDS011;44240;51.840;7.258;2023-02-01T01:04:43;19.55;;;5.07;;
58446;SDS011;44240;51.840;7.258;2023-02-01T01:07:08;17.17;;;5.43;;
58446;SDS011;44240;51.840;7.258;2023-02-01T01:09:34;24.65;;;6.47;;
58446;SDS011;44240;51.840;7.258;2023-02-01T01:12:00;18.52;;;4.40;;
58446;SDS011;44240;51.840;7.258;2023-02-01T01:14:27;19.00;;;5.80;;
58446;SDS011;44240;51.840;7.258;2023-02-01T01:16:53;16.90;;;5.45;;
58446;SDS011;44240;51.840;7.258;2023-02-01T01:19:19;15.82;;;6.47;;
58446;SDS011;44240;51.840;7.258;2023-02-01T01:21:45;18.75;;;3.92;;
58446;SDS011;44240;51.840;7.258;2023-02-01T01:24:10;19.13;;;5.63;;
58446;SDS011;44240;51.840;7.258;2023-02-01T01:26:36;14.05;;;4.97;;
58446;SDS011;44240;51.840;7.258;2023-02-01T01:29:02;15.38;;;5.03;;
58446;SDS011;44240;51.840;7.258;2023-02-01T01:31:28;19.67;;;4.95;;
58446;SDS011;44240;51.840;7.258;2023-02-01T01:33:55;16.13;;;4.65;;
58446;SDS011;44240;51.840;7.258;2023-02-01T01:36:23;17.90;;;4.88;;
58446;SDS011;44240;51.840;7.258;2023-02-01T01:38:49;21.23;;;4.90;;
58446;SDS011;44240;51.840;7.258;2023-02-01T01:41:20;19.35;;;5.22;;
58446;SDS011;44240;51.840;7.258;2023-02-01T01:43:52;17.42;;;5.10;;
58446;SDS011;44240;51.840;7.258;2023-02-01T01:46:18;19.08;;;4.13;;
58446;SDS011;44240;51.840;7.258;2023-02-01T01:48:50;18.73;;;5.28;;
58446;SDS011;44240;51.840;7.258;2023-02-01T01:51:21;17.88;;;4.35;;
58446;SDS011;44240;51.840;7.258;2023-02-01T01:53:53;18.55;;;4.25;;
58446;SDS011;44240;51.840;7.258;2023-02-01T01:56:25;18.48;;;4.55;;
58446;SDS011;44240;51.840;7.258;2023-02-01T01:58:53;23.48;;;5.15;;
58446;SDS011;44240;51.840;7.258;2023-02-01T02:01:19;18.35;;;4.05;;
58446;SDS011;44240;51.840;7.258;2023-02-01T02:03:45;16.98;;;3.95;;
58446;SDS011;44240;51.840;7.258;2023-02-01T02:09:10;17.73;;;5.18;;
58446;SDS011;44240;51.840;7.258;2023-02-01T02:11:36;27.50;;;5.53;;
58446;SDS011;44240;51.840;7.258;2023-02-01T02:14:01;14.88;;;4.80;;
58446;SDS011;44240;51.840;7.258;2023-02-01T02:28:05;24.77;;;5.38;;
58446;SDS011;44240;51.840;7.258;2023-02-01T02:33:38;15.43;;;3.90;;
58446;SDS011;44240;51.840;7.258;2023-02-01T02:36:19;15.02;;;4.78;;
58446;SDS011;44240;51.840;7.258;2023-02-01T02:42:05;16.13;;;4.63;;
58446;SDS011;44240;51.840;7.258;2023-02-01T02:44:58;22.02;;;4.25;;
58446;SDS011;44240;51.840;7.258;2023-02-01T02:50:36;18.85;;;4.45;;
58446;SDS011;44240;51.840;7.258;2023-02-01T02:53:27;21.63;;;4.85;;
58446;SDS011;44240;51.840;7.258;2023-02-01T02:56:15;15.60;;;3.63;;
58446;SDS011;44240;51.840;7.258;2023-02-01T02:59:03;19.95;;;4.32;;
58446;SDS011;44240;51.840;7.258;2023-02-01T03:01:49;21.10;;;4.90;;
58446;SDS011;44240;51.840;7.258;2023-02-01T03:04:33;18.75;;;3.72;;
58446;SDS011;44240;51.840;7.258;2023-02-01T03:07:10;18.65;;;4.18;;
58446;SDS011;44240;51.840;7.258;2023-02-01T03:09:57;20.30;;;4.03;;
58446;SDS011;44240;51.840;7.258;2023-02-01T03:12:29;15.75;;;4.38;;
58446;SDS011;44240;51.840;7.258;2023-02-01T03:15:20;22.20;;;4.72;;
58446;SDS011;44240;51.840;7.258;2023-02-01T03:17:55;24.17;;;4.65;;
58446;SDS011;44240;51.840;7.258;2023-02-01T03:20:25;15.32;;;4.07;;
58446;SDS011;44240;51.840;7.258;2023-02-01T03:22:52;12.60;;;4.00;;
58446;SDS011;44240;51.840;7.258;2023-02-01T03:25:22;12.05;;;3.08;;
58446;SDS011;44240;51.840;7.258;2023-02-01T03:27:54;12.73;;;5.15;;
58446;SDS011;44240;51.840;7.258;2023-02-01T03:30:24;19.40;;;4.75;;
58446;SDS011;44240;51.840;7.258;2023-02-01T03:32:57;15.35;;;4.13;;
58446;SDS011;44240;51.840;7.258;2023-02-01T03:35:43;15.40;;;4.03;;
58446;SDS011;44240;51.840;7.258;2023-02-01T03:38:37;14.30;;;4.55;;
58446;SDS011;44240;51.840;7.258;2023-02-01T03:43:42;21.70;;;4.05;;
58446;SDS011;44240;51.840;7.258;2023-02-01T03:46:33;17.05;;;3.60;;
58446;SDS011;44240;51.840;7.258;2023-02-01T03:49:09;9.73;;;3.88;;
58446;SDS011;44240;51.840;7.258;2023-02-01T03:51:38;22.38;;;4.88;;
58446;SDS011;44240;51.840;7.258;2023-02-01T03:54:06;10.80;;;3.97;;
58446;SDS011;44240;51.840;7.258;2023-02-01T03:56:35;23.60;;;4.05;;
58446;SDS011;44240;51.840;7.258;2023-02-01T03:59:02;14.63;;;3.70;;
58446;SDS011;44240;51.840;7.258;2023-02-01T04:01:29;22.05;;;5.00;;
58446;SDS011;44240;51.840;7.258;2023-02-01T04:03:56;22.60;;;4.43;;
58446;SDS011;44240;51.840;7.258;2023-02-01T04:06:23;16.25;;;5.03;;
58446;SDS011;44240;51.840;7.258;2023-02-01T04:08:49;12.20;;;5.07;;
58446;SDS011;44240;51.840;7.258;2023-02-01T04:11:15;19.17;;;3.80;;
58446;SDS011;44240;51.840;7.258;2023-02-01T04:13:41;14.45;;;4.22;;
58446;SDS011;44240;51.840;7.258;2023-02-01T04:16:07;14.32;;;3.65;;
58446;SDS011;44240;51.840;7.258;2023-02-01T04:18:33;9.55;;;4.05;;
58446;SDS011;44240;51.840;7.258;2023-02-01T04:20:58;16.13;;;4.13;;
58446;SDS011;44240;51.840;7.258;2023-02-01T04:23:24;18.10;;;4.68;;
58446;SDS011;44240;51.840;7.258;2023-02-01T04:25:49;15.70;;;5.07;;
58446;SDS011;44240;51.840;7.258;2023-02-01T04:28:15;19.50;;;4.32;;
58446;SDS011;44240;51.840;7.258;2023-02-01T04:30:40;19.83;;;3.78;;
58446;SDS011;44240;51.840;7.258;2023-02-01T04:33:06;16.77;;;4.78;;
58446;SDS011;44240;51.840;7.258;2023-02-01T04:35:32;20.50;;;4.70;;
58446;SDS011;44240;51.840;7.258;2023-02-01T04:37:58;16.33;;;3.60;;
58446;SDS011;44240;51.840;7.258;2023-02-01T04:40:24;20.25;;;4.57;;
58446;SDS011;44240;51.840;7.258;2023-02-01T04:42:49;19.23;;;4.25;;
58446;SDS011;44240;51.840;7.258;2023-02-01T04:45:15;14.88;;;4.07;;
58446;SDS011;44240;51.840;7.258;2023-02-01T04:47:40;13.63;;;4.57;;
58446;SDS011;44240;51.840;7.258;2023-02-01T04:50:06;17.38;;;3.90;;
58446;SDS011;44240;51.840;7.258;2023-02-01T04:52:35;15.07;;;4.43;;
58446;SDS011;44240;51.840;7.258;2023-02-01T04:55:01;16.17;;;3.78;;
58446;SDS011;44240;51.840;7.258;2023-02-01T04:57:27;15.57;;;4.40;;
58446;SDS011;44240;51.840;7.258;2023-02-01T04:59:53;13.80;;;4.43;;
58446;SDS011;44240;51.840;7.258;2023-02-01T05:02:19;20.02;;;6.15;;
58446;SDS011;44240;51.840;7.258;2023-02-01T05:04:44;18.60;;;4.18;;
58446;SDS011;44240;51.840;7.258;2023-02-01T05:07:10;16.98;;;4.75;;
58446;SDS011;44240;51.840;7.258;2023-02-01T05:09:35;23.30;;;4.65;;
58446;SDS011;44240;51.840;7.258;2023-02-01T05:12:01;16.17;;;3.80;;
58446;SDS011;44240;51.840;7.258;2023-02-01T05:14:47;18.83;;;5.00;;
58446;SDS011;44240;51.840;7.258;2023-02-01T05:17:12;22.35;;;5.10;;
58446;SDS011;44240;51.840;7.258;2023-02-01T05:19:38;20.33;;;4.85;;
58446;SDS011;44240;51.840;7.258;2023-02-01T05:22:03;20.15;;;5.25;;
58446;SDS011;44240;51.840;7.258;2023-02-01T05:24:29;21.83;;;4.55;;
58446;SDS011;44240;51.840;7.258;2023-02-01T05:26:55;19.92;;;5.25;;
58446;SDS011;44240;51.840;7.258;2023-02-01T05:29:20;13.13;;;3.95;;
58446;SDS011;44240;51.840;7.258;2023-02-01T05:31:46;20.90;;;6.05;;
58446;SDS011;44240;51.840;7.258;2023-02-01T05:34:13;14.43;;;3.15;;
58446;SDS011;44240;51.840;7.258;2023-02-01T05:36:39;20.45;;;5.10;;
58446;SDS011;44240;51.840;7.258;2023-02-01T05:39:05;22.50;;;4.78;;
58446;SDS011;44240;51.840;7.258;2023-02-01T05:41:31;22.40;;;4.47;;
58446;SDS011;44240;51.840;7.258;2023-02-01T05:43:57;22.23;;;5.00;;
58446;SDS011;44240;51.840;7.258;2023-02-01T05:46:22;25.52;;;5.82;;
58446;SDS011;44240;51.840;7.258;2023-02-01T05:48:48;19.05;;;5.00;;
58446;SDS011;44240;51.840;7.258;2023-02-01T05:51:14;16.25;;;3.90;;
58446;SDS011;44240;51.840;7.258;2023-02-01T05:53:39;16.58;;;3.97;;
58446;SDS011;44240;51.840;7.258;2023-02-01T05:56:05;18.55;;;4.63;;
58446;SDS011;44240;51.840;7.258;2023-02-01T05:58:31;20.83;;;5.43;;
58446;SDS011;44240;51.840;7.258;2023-02-01T06:01:00;17.88;;;4.85;;
58446;SDS011;44240;51.840;7.258;2023-02-01T06:03:27;18.67;;;5.55;;
58446;SDS011;44240;51.840;7.258;2023-02-01T06:05:52;16.70;;;5.60;;
58446;SDS011;44240;51.840;7.258;2023-02-01T06:08:18;25.65;;;5.32;;
58446;SDS011;44240;51.840;7.258;2023-02-01T06:10:43;16.73;;;5.38;;
58446;SDS011;44240;51.840;7.258;2023-02-01T06:13:09;19.25;;;5.60;;
58446;SDS011;44240;51.840;7.258;2023-02-01T06:15:35;18.15;;;4.93;;
58446;SDS011;44240;51.840;7.258;2023-02-01T06:18:02;16.77;;;4.72;;
58446;SDS011;44240;51.840;7.258;2023-02-01T06:20:28;15.60;;;4.60;;
58446;SDS011;44240;51.840;7.258;2023-02-01T06:22:54;19.23;;;4.25;;
58446;SDS011;44240;51.840;7.258;2023-02-01T06:25:19;17.13;;;4.50;;
58446;SDS011;44240;51.840;7.258;2023-02-01T06:27:46;17.35;;;4.50;;
58446;SDS011;44240;51.840;7.258;2023-02-01T06:30:12;24.52;;;5.15;;
58446;SDS011;44240;51.840;7.258;2023-02-01T06:32:41;20.65;;;5.30;;
58446;SDS011;44240;51.840;7.258;2023-02-01T06:35:07;24.42;;;5.07;;
58446;SDS011;44240;51.840;7.258;2023-02-01T06:37:36;17.27;;;4.55;;
58446;SDS011;44240;51.840;7.258;2023-02-01T06:40:02;18.80;;;5.97;;
58446;SDS011;44240;51.840;7.258;2023-02-01T06:42:29;16.70;;;5.25;;
58446;SDS011;44240;51.840;7.258;2023-02-01T06:44:55;20.48;;;5.60;;
58446;SDS011;44240;51.840;7.258;2023-02-01T06:47:20;12.93;;;4.18;;
58446;SDS011;44240;51.840;7.258;2023-02-01T06:49:46;17.05;;;4.43;;
58446;SDS011;44240;51.840;7.258;2023-02-01T06:52:11;14.82;;;4.65;;
58446;SDS011;44240;51.840;7.258;2023-02-01T06:54:37;20.15;;;5.35;;
58446;SDS011;44240;51.840;7.258;2023-02-01T06:57:02;21.48;;;5.60;;
58446;SDS011;44240;51.840;7.258;2023-02-01T06:59:28;24.42;;;5.20;;
58446;SDS011;44240;51.840;7.258;2023-02-01T07:01:54;22.38;;;5.32;;
58446;SDS011;44240;51.840;7.258;2023-02-01T07:04:19;23.83;;;4.25;;
58446;SDS011;44240;51.840;7.258;2023-02-01T07:06:45;13.38;;;3.75;;
58446;SDS011;44240;51.840;7.258;2023-02-01T07:09:10;21.85;;;5.90;;
58446;SDS011;44240;51.840;7.258;2023-02-01T07:11:37;20.25;;;4.72;;
58446;SDS011;44240;51.840;7.258;2023-02-01T07:14:05;24.58;;;6.00;;
58446;SDS011;44240;51.840;7.258;2023-02-01T07:16:31;23.33;;;5.22;;
58446;SDS011;44240;51.840;7.258;2023-02-01T07:18:57;18.25;;;4.85;;
58446;SDS011;44240;51.840;7.258;2023-02-01T07:21:24;20.55;;;3.80;;
58446;SDS011;44240;51.840;7.258;2023-02-01T07:23:50;29.35;;;5.88;;
58446;SDS011;44240;51.840;7.258;2023-02-01T07:26:15;21.02;;;5.78;;
58446;SDS011;44240;51.840;7.258;2023-02-01T07:28:41;22.88;;;5.78;;
58446;SDS011;44240;51.840;7.258;2023-02-01T07:31:08;20.00;;;4.88;;
58446;SDS011;44240;51.840;7.258;2023-02-01T07:33:35;19.83;;;6.28;;
58446;SDS011;44240;51.840;7.258;2023-02-01T07:36:02;13.48;;;4.35;;
58446;SDS011;44240;51.840;7.258;2023-02-01T07:38:30;19.00;;;5.00;;
58446;SDS011;44240;51.840;7.258;2023-02-01T07:40:59;18.98;;;4.75;;
58446;SDS011;44240;51.840;7.258;2023-02-01T07:43:28;18.10;;;4.68;;
58446;SDS011;44240;51.840;7.258;2023-02-01T07:45:54;21.13;;;5.25;;
58446;SDS011;44240;51.840;7.258;2023-02-01T07:48:21;19.80;;;5.20;;
58446;SDS011;44240;51.840;7.258;2023-02-01T07:50:47;17.65;;;4.30;;
58446;SDS011;44240;51.840;7.258;2023-02-01T07:53:13;13.50;;;4.70;;
58446;SDS011;44240;51.840;7.258;2023-02-01T07:55:39;12.77;;;4.03;;
58446;SDS011;44240;51.840;7.258;2023-02-01T07:58:05;23.10;;;5.25;;
58446;SDS011;44240;51.840;7.258;2023-02-01T08:00:31;16.70;;;4.72;;
58446;SDS011;44240;51.840;7.258;2023-02-01T08:03:15;19.08;;;4.30;;
58446;SDS011;44240;51.840;7.258;2023-02-01T08:05:41;27.83;;;4.93;;
58446;SDS011;44240;51.840;7.258;2023-02-01T08:08:06;17.13;;;4.60;;
58446;SDS011;44240;51.840;7.258;2023-02-01T08:10:32;19.85;;;4.93;;
58446;SDS011;44240;51.840;7.258;2023-02-01T08:12:58;24.23;;;5.15;;
58446;SDS011;44240;51.840;7.258;2023-02-01T08:15:25;25.85;;;5.32;;
58446;SDS011;44240;51.840;7.258;2023-02-01T08:17:52;24.27;;;4.80;;
58446;SDS011;44240;51.840;7.258;2023-02-01T08:20:19;17.35;;;4.72;;
58446;SDS011;44240;51.840;7.258;2023-02-01T08:22:48;23.67;;;5.55;;
58446;SDS011;44240;51.840;7.258;2023-02-01T08:25:14;13.13;;;4.25;;
58446;SDS011;44240;51.840;7.258;2023-02-01T08:27:40;19.40;;;4.55;;
58446;SDS011;44240;51.840;7.258;2023-02-01T08:30:06;12.73;;;4.95;;
58446;SDS011;44240;51.840;7.258;2023-02-01T08:32:32;22.60;;;4.70;;
58446;SDS011;44240;51.840;7.258;2023-02-01T08:34:58;18.35;;;5.57;;
58446;SDS011;44240;51.840;7.258;2023-02-01T08:37:24;25.77;;;5.45;;
58446;SDS011;44240;51.840;7.258;2023-02-01T08:39:49;21.15;;;4.80;;
58446;SDS011;44240;51.840;7.258;2023-02-01T08:42:15;16.77;;;5.68;;
58446;SDS011;44240;51.840;7.258;2023-02-01T08:45:00;22.65;;;5.45;;
58446;SDS011;44240;51.840;7.258;2023-02-01T08:47:27;18.02;;;4.93;;
58446;SDS011;44240;51.840;7.258;2023-02-01T08:49:53;18.30;;;4.95;;
58446;SDS011;44240;51.840;7.258;2023-02-01T08:52:19;19.02;;;4.97;;
58446;SDS011;44240;51.840;7.258;2023-02-01T08:54:44;21.10;;;5.75;;
58446;SDS011;44240;51.840;7.258;2023-02-01T08:57:10;18.83;;;6.15;;
58446;SDS011;44240;51.840;7.258;2023-02-01T08:59:36;29.55;;;6.28;;
58446;SDS011;44240;51.840;7.258;2023-02-01T09:02:01;21.25;;;4.68;;
58446;SDS011;44240;51.840;7.258;2023-02-01T09:04:27;18.23;;;5.10;;
58446;SDS011;44240;51.840;7.258;2023-02-01T09:06:52;22.58;;;5.70;;
58446;SDS011;44240;51.840;7.258;2023-02-01T09:09:20;25.20;;;6.15;;
58446;SDS011;44240;51.840;7.258;2023-02-01T09:11:46;18.85;;;5.15;;
58446;SDS011;44240;51.840;7.258;2023-02-01T09:14:12;16.90;;;4.72;;
58446;SDS011;44240;51.840;7.258;2023-02-01T09:16:37;21.02;;;5.15;;
58446;SDS011;44240;51.840;7.258;2023-02-01T09:19:03;15.90;;;4.80;;
58446;SDS011;44240;51.840;7.258;2023-02-01T09:21:28;18.73;;;5.70;;
58446;SDS011;44240;51.840;7.258;2023-02-01T09:23:54;21.10;;;5.30;;
58446;SDS011;44240;51.840;7.258;2023-02-01T09:26:20;18.25;;;4.90;;
58446;SDS011;44240;51.840;7.258;2023-02-01T09:28:45;18.20;;;4.82;;
58446;SDS011;44240;51.840;7.258;2023-02-01T09:31:11;20.73;;;5.03;;
58446;SDS011;44240;51.840;7.258;2023-02-01T09:33:36;18.17;;;5.13;;
58446;SDS011;44240;51.840;7.258;2023-02-01T09:36:03;21.70;;;5.28;;
58446;SDS011;44240;51.840;7.258;2023-02-01T09:38:29;21.23;;;5.03;;
58446;SDS011;44240;51.840;7.258;2023-02-01T09:40:56;22.33;;;4.85;;
58446;SDS011;44240;51.840;7.258;2023-02-01T09:43:32;21.98;;;5.45;;
58446;SDS011;44240;51.840;7.258;2023-02-01T09:48:49;18.58;;;5.15;;
58446;SDS011;44240;51.840;7.258;2023-02-01T09:51:20;16.88;;;4.95;;
58446;SDS011;44240;51.840;7.258;2023-02-01T09:56:32;15.88;;;4.78;;
58446;SDS011;44240;51.840;7.258;2023-02-01T09:59:09;17.20;;;4.57;;
58446;SDS011;44240;51.840;7.258;2023-02-01T10:01:51;14.85;;;3.75;;
58446;SDS011;44240;51.840;7.258;2023-02-01T10:04:17;13.57;;;4.53;;
58446;SDS011;44240;51.840;7.258;2023-02-01T10:14:57;12.98;;;3.80;;
58446;SDS011;44240;51.840;7.258;2023-02-01T10:20:30;12.70;;;3.90;;
58446;SDS011;44240;51.840;7.258;2023-02-01T10:23:16;17.93;;;4.93;;
58446;SDS011;44240;51.840;7.258;2023-02-01T10:28:39;23.25;;;5.90;;
58446;SDS011;44240;51.840;7.258;2023-02-01T10:31:05;19.35;;;5.90;;
58446;SDS011;44240;51.840;7.258;2023-02-01T10:33:34;19.08;;;5.28;;
58446;SDS011;44240;51.840;7.258;2023-02-01T10:38:46;18.42;;;5.55;;
58446;SDS011;44240;51.840;7.258;2023-02-01T10:41:16;18.92;;;5.82;;
58446;SDS011;44240;51.840;7.258;2023-02-01T10:43:45;16.63;;;5.43;;
58446;SDS011;44240;51.840;7.258;2023-02-01T10:46:15;19.63;;;6.18;;
58446;SDS011;44240;51.840;7.258;2023-02-01T10:48:41;19.27;;;5.97;;
58446;SDS011;44240;51.840;7.258;2023-02-01T10:51:12;17.73;;;5.65;;
58446;SDS011;44240;51.840;7.258;2023-02-01T10:53:50;22.88;;;6.32;;
58446;SDS011;44240;51.840;7.258;2023-02-01T10:56:28;16.55;;;5.57;;
58446;SDS011;44240;51.840;7.258;2023-02-01T10:59:00;19.52;;;6.00;;
58446;SDS011;44240;51.840;7.258;2023-02-01T11:01:30;18.80;;;6.30;;
58446;SDS011;44240;51.840;7.258;2023-02-01T11:04:00;23.23;;;5.82;;
58446;SDS011;44240;51.840;7.258;2023-02-01T11:06:28;20.85;;;5.85;;
58446;SDS011;44240;51.840;7.258;2023-02-01T11:09:20;14.27;;;5.65;;
58446;SDS011;44240;51.840;7.258;2023-02-01T11:14:14;20.10;;;5.72;;
58446;SDS011;44240;51.840;7.258;2023-02-01T11:16:41;16.67;;;6.15;;
58446;SDS011;44240;51.840;7.258;2023-02-01T11:19:14;22.38;;;6.68;;
58446;SDS011;44240;51.840;7.258;2023-02-01T11:21:41;19.25;;;4.70;;
58446;SDS011;44240;51.840;7.258;2023-02-01T11:24:18;18.67;;;5.70;;
58446;SDS011;44240;51.840;7.258;2023-02-01T11:26:59;20.98;;;5.95;;
58446;SDS011;44240;51.840;7.258;2023-02-01T11:29:28;15.95;;;5.03;;
58446;SDS011;44240;51.840;7.258;2023-02-01T11:32:01;18.00;;;5.75;;
58446;SDS011;44240;51.840;7.258;2023-02-01T11:37:28;21.08;;;6.47;;
58446;SDS011;44240;51.840;7.258;2023-02-01T11:40:48;21.73;;;6.05;;
58446;SDS011;44240;51.840;7.258;2023-02-01T11:43:01;18.77;;;5.75;;
58446;SDS011;44240;51.840;7.258;2023-02-01T11:45:34;21.83;;;4.90;;
58446;SDS011;44240;51.840;7.258;2023-02-01T11:48:02;14.57;;;5.25;;
58446;SDS011;44240;51.840;7.258;2023-02-01T11:50:44;18.33;;;6.35;;
58446;SDS011;44240;51.840;7.258;2023-02-01T11:58:51;23.48;;;5.70;;
58446;SDS011;44240;51.840;7.258;2023-02-01T12:07:53;18.55;;;4.95;;
58446;SDS011;44240;51.840;7.258;2023-02-01T12:18:54;18.50;;;5.18;;
58446;SDS011;44240;51.840;7.258;2023-02-01T12:22:03;19.63;;;6.07;;
58446;SDS011;44240;51.840;7.258;2023-02-01T12:25:01;19.88;;;5.82;;
58446;SDS011;44240;51.840;7.258;2023-02-01T12:31:04;18.15;;;5.85;;
58446;SDS011;44240;51.840;7.258;2023-02-01T12:33:58;20.00;;;6.03;;
58446;SDS011;44240;51.840;7.258;2023-02-01T12:36:51;35.90;;;7.00;;
58446;SDS011;44240;51.840;7.258;2023-02-01T12:39:30;20.75;;;5.38;;
58446;SDS011;44240;51.840;7.258;2023-02-01T12:42:16;22.95;;;5.05;;
58446;SDS011;44240;51.840;7.258;2023-02-01T12:44:52;18.58;;;5.18;;
58446;SDS011;44240;51.840;7.258;2023-02-01T12:47:44;19.83;;;6.00;;
58446;SDS011;44240;51.840;7.258;2023-02-01T12:52:50;16.15;;;5.57;;
58446;SDS011;44240;51.840;7.258;2023-02-01T12:57:55;16.42;;;5.95;;
58446;SDS011;44240;51.840;7.258;2023-02-01T13:00:45;24.98;;;5.63;;
58446;SDS011;44240;51.840;7.258;2023-02-01T13:06:13;23.37;;;5.77;;
58446;SDS011;44240;51.840;7.258;2023-02-01T13:08:51;19.15;;;5.75;;
58446;SDS011;44240;51.840;7.258;2023-02-01T13:11:33;17.50;;;5.03;;
58446;SDS011;44240;51.840;7.258;2023-02-01T13:16:48;21.65;;;5.38;;
58446;SDS011;44240;51.840;7.258;2023-02-01T13:19:27;15.63;;;4.70;;
58446;SDS011;44240;51.840;7.258;2023-02-01T13:22:17;15.57;;;5.07;;
58446;SDS011;44240;51.840;7.258;2023-02-01T13:24:57;16.15;;;4.28;;
58446;SDS011;44240;51.840;7.258;2023-02-01T13:27:37;12.50;;;4.32;;
58446;SDS011;44240;51.840;7.258;2023-02-01T13:30:10;16.95;;;4.93;;
58446;SDS011;44240;51.840;7.258;2023-02-01T13:32:58;15.10;;;4.13;;
58446;SDS011;44240;51.840;7.258;2023-02-01T13:41:30;22.17;;;5.45;;
58446;SDS011;44240;51.840;7.258;2023-02-01T13:44:15;19.35;;;4.55;;
58446;SDS011;44240;51.840;7.258;2023-02-01T13:46:46;20.98;;;5.57;;
58446;SDS011;44240;51.840;7.258;2023-02-01T13:49:18;13.77;;;4.53;;
58446;SDS011;44240;51.840;7.258;2023-02-01T13:51:49;18.85;;;5.43;;
58446;SDS011;44240;51.840;7.258;2023-02-01T13:54:25;16.42;;;4.97;;
58446;SDS011;44240;51.840;7.258;2023-02-01T13:56:55;12.48;;;4.75;;
58446;SDS011;44240;51.840;7.258;2023-02-01T13:59:37;18.52;;;4.85;;
58446;SDS011;44240;51.840;7.258;2023-02-01T14:05:02;16.40;;;4.97;;
58446;SDS011;44240;51.840;7.258;2023-02-01T14:07:28;17.05;;;4.95;;
58446;SDS011;44240;51.840;7.258;2023-02-01T14:09:53;13.75;;;4.50;;
58446;SDS011;44240;51.840;7.258;2023-02-01T14:15:17;19.90;;;5.50;;
58446;SDS011;44240;51.840;7.258;2023-02-01T14:17:47;15.95;;;4.82;;
58446;SDS011;44240;51.840;7.258;2023-02-01T14:23:11;16.42;;;5.68;;
58446;SDS011;44240;51.840;7.258;2023-02-01T14:25:40;17.60;;;5.10;;
58446;SDS011;44240;51.840;7.258;2023-02-01T14:28:17;20.42;;;5.30;;
58446;SDS011;44240;51.840;7.258;2023-02-01T14:30:53;25.20;;;5.85;;
58446;SDS011;44240;51.840;7.258;2023-02-01T14:33:22;15.93;;;4.82;;
58446;SDS011;44240;51.840;7.258;2023-02-01T14:35:57;20.45;;;5.55;;
58446;SDS011;44240;51.840;7.258;2023-02-01T14:38:35;28.45;;;6.45;;
58446;SDS011;44240;51.840;7.258;2023-02-01T14:41:13;22.60;;;5.30;;
58446;SDS011;44240;51.840;7.258;2023-02-01T14:43:49;16.17;;;5.57;;
58446;SDS011;44240;51.840;7.258;2023-02-01T14:46:16;18.50;;;5.55;;
58446;SDS011;44240;51.840;7.258;2023-02-01T14:48:43;17.98;;;5.68;;
58446;SDS011;44240;51.840;7.258;2023-02-01T14:51:11;20.50;;;6.07;;
58446;SDS011;44240;51.840;7.258;2023-02-01T14:53:41;19.33;;;4.68;;
58446;SDS011;44240;51.840;7.258;2023-02-01T14:56:09;22.08;;;6.55;;
58446;SDS011;44240;51.840;7.258;2023-02-01T15:01:28;15.27;;;4.95;;
58446;SDS011;44240;51.840;7.258;2023-02-01T15:03:55;17.40;;;5.15;;
58446;SDS011;44240;51.840;7.258;2023-02-01T15:06:47;17.75;;;4.72;;
58446;SDS011;44240;51.840;7.258;2023-02-01T15:09:18;18.60;;;4.43;;
58446;SDS011;44240;51.840;7.258;2023-02-01T15:11:54;17.95;;;4.88;;
58446;SDS011;44240;51.840;7.258;2023-02-01T15:14:43;15.40;;;4.30;;
58446;SDS011;44240;51.840;7.258;2023-02-01T15:17:18;17.67;;;5.15;;
58446;SDS011;44240;51.840;7.258;2023-02-01T15:19:58;20.33;;;4.80;;
58446;SDS011;44240;51.840;7.258;2023-02-01T15:22:40;14.50;;;4.68;;
58446;SDS011;44240;51.840;7.258;2023-02-01T15:25:17;15.88;;;5.32;;
58446;SDS011;44240;51.840;7.258;2023-02-01T15:27:45;22.45;;;5.35;;
58446;SDS011;44240;51.840;7.258;2023-02-01T15:30:18;18.42;;;4.57;;
58446;SDS011;44240;51.840;7.258;2023-02-01T15:32:50;18.35;;;5.28;;
58446;SDS011;44240;51.840;7.258;2023-02-01T15:43:41;27.83;;;12.50;;
58446;SDS011;44240;51.840;7.258;2023-02-01T15:46:32;44.72;;;21.25;;
58446;SDS011;44240;51.840;7.258;2023-02-01T15:49:01;25.00;;;11.68;;
58446;SDS011;44240;51.840;7.258;2023-02-01T15:51:28;23.27;;;5.18;;
58446;SDS011;44240;51.840;7.258;2023-02-01T15:54:01;18.35;;;4.88;;
58446;SDS011;44240;51.840;7.258;2023-02-01T15:56:33;15.90;;;5.13;;
58446;SDS011;44240;51.840;7.258;2023-02-01T15:59:02;21.05;;;4.93;;
58446;SDS011;44240;51.840;7.258;2023-02-01T16:01:34;14.73;;;4.00;;
58446;SDS011;44240;51.840;7.258;2023-02-01T16:06:59;17.05;;;5.43;;
58446;SDS011;44240;51.840;7.258;2023-02-01T16:09:38;14.25;;;4.90;;
58446;SDS011;44240;51.840;7.258;2023-02-01T16:15:06;21.88;;;6.00;;
58446;SDS011;44240;51.840;7.258;2023-02-01T16:17:32;13.75;;;5.15;;
58446;SDS011;44240;51.840;7.258;2023-02-01T16:19:57;18.02;;;6.32;;
58446;SDS011;44240;51.840;7.258;2023-02-01T16:22:23;14.25;;;5.00;;
58446;SDS011;44240;51.840;7.258;2023-02-01T16:24:49;16.50;;;5.57;;
58446;SDS011;44240;51.840;7.258;2023-02-01T16:27:15;14.05;;;3.80;;
58446;SDS011;44240;51.840;7.258;2023-02-01T16:29:40;11.32;;;4.55;;
58446;SDS011;44240;51.840;7.258;2023-02-01T16:32:08;16.98;;;5.00;;
58446;SDS011;44240;51.840;7.258;2023-02-01T16:34:44;18.27;;;5.35;;
58446;SDS011;44240;51.840;7.258;2023-02-01T16:37:12;13.73;;;4.05;;
58446;SDS011;44240;51.840;7.258;2023-02-01T16:39:45;8.90;;;3.60;;
58446;SDS011;44240;51.840;7.258;2023-02-01T16:42:11;11.20;;;3.55;;
58446;SDS011;44240;51.840;7.258;2023-02-01T16:44:38;8.30;;;3.05;;
58446;SDS011;44240;51.840;7.258;2023-02-01T16:47:08;11.82;;;3.38;;
58446;SDS011;44240;51.840;7.258;2023-02-01T16:49:41;9.98;;;2.95;;
58446;SDS011;44240;51.840;7.258;2023-02-01T16:52:09;12.80;;;3.72;;
58446;SDS011;44240;51.840;7.258;2023-02-01T16:54:42;12.63;;;2.10;;